Time;durP1;ratioP1;P1;durP2;ratioP2;P2;SDS_P1;SDS_P2;PMS_P1;PMS_P2;Temp;Humidity;BMP_temperature;BMP_pressure;BME280_temperature;BME280_humidity;BME280_pressure;Samples;Min_cycle;Max_cycle;Signal;HPM_P1;HPM_P2
2023/02/16 00:02:00;;;;;;;20.70;9.27;;;;;;;;;;6210566;28;20295;-79
2023/02/16 00:05:21;;;;;;;21.10;9.50;;;;;;;;;;6210584;28;20313;-79
2023/02/16 00:08:26;;;;;;;20.80;8.43;;;;;;;;;;6210239;28;20311;-80
2023/02/16 00:14:58;;;;;;;20.07;8.83;;;;;;;;;;6209146;28;20296;-80
2023/02/16 00:18:04;;;;;;;18.83;8.57;;;;;;;;;;6209945;28;20304;-80
2023/02/16 00:21:10;;;;;;;19.57;9.00;;;;;;;;;;6210689;28;20293;-80
2023/02/16 00:24:15;;;;;;;21.53;9.20;;;;;;;;;;6214282;28;20294;-80
2023/02/16 00:27:21;;;;;;;22.17;9.33;;;;;;;;;;6215188;28;20475;-80
2023/02/16 00:30:28;;;;;;;16.87;8.67;;;;;;;;;;6214467;28;20294;-80
2023/02/16 00:33:34;;;;;;;22.00;8.90;;;;;;;;;;6213218;28;20464;-80
2023/02/16 00:36:39;;;;;;;18.67;8.47;;;;;;;;;;6216377;28;20300;-80
2023/02/16 00:39:45;;;;;;;18.47;8.23;;;;;;;;;;6228028;28;20256;-79
2023/02/16 00:42:50;;;;;;;21.13;8.23;;;;;;;;;;6243945;28;20233;-78
2023/02/16 00:45:57;;;;;;;19.40;8.43;;;;;;;;;;6210596;28;20289;-80
2023/02/16 00:49:02;;;;;;;19.70;8.93;;;;;;;;;;6227892;28;20305;-80
2023/02/16 00:52:23;;;;;;;21.83;8.37;;;;;;;;;;6227592;28;20256;-81
2023/02/16 00:55:30;;;;;;;17.27;8.63;;;;;;;;;;6239755;28;20310;-79
2023/02/16 00:58:35;;;;;;;22.30;8.93;;;;;;;;;;6213659;28;20301;-80
2023/02/16 01:01:42;;;;;;;19.47;8.87;;;;;;;;;;6229158;28;20296;-80
2023/02/16 01:04:47;;;;;;;18.63;8.80;;;;;;;;;;6213161;28;20304;-80
2023/02/16 01:11:15;;;;;;;15.57;8.03;;;;;;;;;;6228921;28;20291;-79
2023/02/16 01:14:20;;;;;;;16.47;7.93;;;;;;;;;;6212707;28;20494;-79
2023/02/16 01:17:26;;;;;;;18.23;7.83;;;;;;;;;;6214278;28;20492;-80
2023/02/16 01:20:36;;;;;;;19.07;8.73;;;;;;;;;;6212048;28;20300;-80
2023/02/16 01:23:41;;;;;;;18.83;8.27;;;;;;;;;;6212670;28;20293;-79
2023/02/16 01:26:49;;;;;;;20.63;8.73;;;;;;;;;;6228492;28;20276;-80
2023/02/16 01:29:54;;;;;;;18.93;8.07;;;;;;;;;;6213800;28;20352;-79
2023/02/16 01:33:01;;;;;;;17.37;8.03;;;;;;;;;;6212451;28;20568;-79
2023/02/16 01:36:07;;;;;;;16.07;7.80;;;;;;;;;;6228183;28;20289;-79
2023/02/16 01:39:13;;;;;;;18.63;8.00;;;;;;;;;;6214209;28;20293;-80
2023/02/16 01:42:32;;;;;;;17.37;7.70;;;;;;;;;;6216981;28;20581;-80
2023/02/16 01:45:41;;;;;;;16.50;8.07;;;;;;;;;;6215037;28;20592;-78
2023/02/16 01:48:48;;;;;;;17.33;7.83;;;;;;;;;;6212333;28;20296;-79
2023/02/16 01:51:57;;;;;;;17.80;7.33;;;;;;;;;;6213365;28;20305;-79
2023/02/16 01:55:07;;;;;;;17.63;7.73;;;;;;;;;;6211004;28;20297;-80
2023/02/16 01:58:18;;;;;;;16.47;7.53;;;;;;;;;;6212670;28;20304;-79
2023/02/16 02:01:38;;;;;;;16.27;8.20;;;;;;;;;;6212904;28;20297;-80
2023/02/16 02:08:22;;;;;;;20.40;8.53;;;;;;;;;;6227269;28;20312;-81
2023/02/16 02:11:32;;;;;;;14.20;7.80;;;;;;;;;;6227393;28;20300;-79
2023/02/16 02:14:39;;;;;;;16.43;7.93;;;;;;;;;;6209859;28;20516;-80
2023/02/16 02:17:44;;;;;;;14.53;7.67;;;;;;;;;;6226620;28;20283;-80
2023/02/16 02:25:18;;;;;;;15.60;7.87;;;;;;;;;;6205032;28;20313;-81
2023/02/16 02:28:28;;;;;;;16.40;8.00;;;;;;;;;;6211329;28;20302;-79
2023/02/16 02:31:43;;;;;;;18.43;7.90;;;;;;;;;;6227427;28;20313;-80
2023/02/16 02:35:01;;;;;;;15.30;7.97;;;;;;;;;;6210269;28;20295;-80
2023/02/16 02:38:14;;;;;;;14.53;7.53;;;;;;;;;;6226312;28;20577;-80
2023/02/16 02:42:02;;;;;;;18.77;7.63;;;;;;;;;;6210624;28;20438;-80
2023/02/16 02:44:57;;;;;;;15.83;7.83;;;;;;;;;;6209151;28;20305;-80
2023/02/16 02:48:03;;;;;;;17.87;7.90;;;;;;;;;;6225695;28;20441;-79
2023/02/16 02:51:32;;;;;;;19.20;8.07;;;;;;;;;;6211755;28;20292;-79
2023/02/16 03:01:33;;;;;;;17.10;8.13;;;;;;;;;;6211351;28;20325;-80
2023/02/16 03:04:38;;;;;;;17.50;8.10;;;;;;;;;;6210392;28;20294;-80
2023/02/16 03:07:48;;;;;;;15.63;7.83;;;;;;;;;;6210438;28;20297;-79
2023/02/16 03:14:22;;;;;;;15.73;7.73;;;;;;;;;;6210463;28;20316;-81
2023/02/16 03:31:11;;;;;;;20.67;8.20;;;;;;;;;;6211042;28;20466;-80
2023/02/16 03:34:20;;;;;;;17.60;7.83;;;;;;;;;;6210310;28;20301;-79
2023/02/16 03:37:28;;;;;;;17.73;7.73;;;;;;;;;;6225455;28;20294;-79
2023/02/16 03:40:34;;;;;;;16.93;8.40;;;;;;;;;;6210757;28;20588;-79
2023/02/16 03:43:39;;;;;;;16.87;7.23;;;;;;;;;;6210862;28;20296;-79
2023/02/16 03:46:44;;;;;;;18.60;7.80;;;;;;;;;;6211794;28;20296;-79
2023/02/16 03:49:51;;;;;;;17.77;7.80;;;;;;;;;;6209415;28;20596;-79
2023/02/16 03:53:05;;;;;;;16.53;7.70;;;;;;;;;;6210901;28;20298;-79
2023/02/16 03:56:13;;;;;;;14.47;7.27;;;;;;;;;;6211327;28;20295;-79
2023/02/16 03:59:19;;;;;;;15.80;7.60;;;;;;;;;;6215352;28;20411;-79
2023/02/16 04:02:24;;;;;;;16.17;7.77;;;;;;;;;;6211641;28;20280;-79
2023/02/16 04:05:31;;;;;;;14.27;7.30;;;;;;;;;;6215746;28;20305;-79
2023/02/16 04:08:36;;;;;;;19.50;8.13;;;;;;;;;;6213957;28;20295;-79
2023/02/16 04:15:04;;;;;;;14.87;7.50;;;;;;;;;;6215661;28;20296;-80
2023/02/16 04:18:12;;;;;;;15.90;7.80;;;;;;;;;;6214995;28;20324;-79
2023/02/16 04:21:19;;;;;;;15.47;7.33;;;;;;;;;;6215274;28;20300;-80
2023/02/16 04:24:24;;;;;;;24.23;8.03;;;;;;;;;;6214422;28;20289;-79
2023/02/16 04:27:30;;;;;;;12.10;7.07;;;;;;;;;;6214462;28;20292;-78
2023/02/16 04:30:35;;;;;;;16.03;8.20;;;;;;;;;;6214991;28;20289;-80
2023/02/16 04:33:40;;;;;;;16.43;7.50;;;;;;;;;;6213843;28;20299;-81
2023/02/16 04:36:46;;;;;;;14.90;7.40;;;;;;;;;;6215432;28;20538;-79
2023/02/16 04:39:52;;;;;;;10.70;6.73;;;;;;;;;;6229933;28;20300;-79
2023/02/16 04:42:57;;;;;;;16.40;7.60;;;;;;;;;;6215671;28;20312;-79
2023/02/16 04:46:02;;;;;;;18.40;7.63;;;;;;;;;;6216062;28;20392;-79
2023/02/16 04:49:07;;;;;;;13.70;7.17;;;;;;;;;;6215299;28;20312;-80
2023/02/16 04:52:14;;;;;;;12.37;7.20;;;;;;;;;;6215406;28;20304;-80
2023/02/16 04:55:19;;;;;;;11.33;6.90;;;;;;;;;;6214665;28;20321;-80
2023/02/16 04:58:27;;;;;;;13.80;6.73;;;;;;;;;;6213943;28;20296;-79
2023/02/16 05:01:32;;;;;;;12.73;7.20;;;;;;;;;;6214247;28;20588;-80
2023/02/16 05:04:38;;;;;;;14.40;7.90;;;;;;;;;;6211779;28;20309;-78
2023/02/16 05:07:45;;;;;;;15.50;7.03;;;;;;;;;;6212930;28;20304;-79
2023/02/16 05:14:40;;;;;;;12.20;6.70;;;;;;;;;;6212964;28;20289;-79
2023/02/16 05:17:42;;;;;;;14.33;7.33;;;;;;;;;;6212389;28;20272;-79
2023/02/16 05:24:13;;;;;;;11.53;6.37;;;;;;;;;;6213013;28;20298;-80
2023/02/16 05:27:19;;;;;;;10.60;6.20;;;;;;;;;;6213320;28;20459;-80
2023/02/16 05:30:24;;;;;;;10.20;6.10;;;;;;;;;;6212743;28;20292;-80
2023/02/16 05:33:30;;;;;;;13.17;6.50;;;;;;;;;;6213542;28;20295;-78
2023/02/16 05:36:35;;;;;;;9.07;5.73;;;;;;;;;;6213240;28;20308;-79
2023/02/16 05:39:41;;;;;;;10.70;6.23;;;;;;;;;;6211384;28;20482;-79
2023/02/16 05:42:52;;;;;;;9.67;6.03;;;;;;;;;;6212271;28;20591;-80
2023/02/16 05:45:57;;;;;;;10.10;6.30;;;;;;;;;;6212195;28;20302;-81
2023/02/16 05:49:02;;;;;;;11.97;5.57;;;;;;;;;;6212565;28;20301;-80
2023/02/16 05:52:07;;;;;;;13.70;6.27;;;;;;;;;;6213014;28;20293;-81
2023/02/16 05:55:15;;;;;;;13.30;6.40;;;;;;;;;;6227725;28;20300;-80
2023/02/16 05:58:20;;;;;;;11.17;6.07;;;;;;;;;;6213207;28;20339;-79
2023/02/16 06:01:25;;;;;;;10.83;6.10;;;;;;;;;;6213091;28;20611;-81
2023/02/16 06:04:31;;;;;;;9.10;6.17;;;;;;;;;;6212001;28;20300;-80
2023/02/16 06:07:36;;;;;;;10.53;6.33;;;;;;;;;;6210412;28;20295;-80
2023/02/16 06:10:43;;;;;;;11.43;6.73;;;;;;;;;;6212565;28;20292;-80
2023/02/16 06:13:49;;;;;;;9.53;5.97;;;;;;;;;;6211847;28;20293;-79
2023/02/16 06:16:55;;;;;;;12.00;5.17;;;;;;;;;;6212442;28;20299;-80
2023/02/16 06:20:00;;;;;;;7.50;5.50;;;;;;;;;;6211598;28;20614;-80
2023/02/16 06:23:06;;;;;;;10.90;5.87;;;;;;;;;;6211690;28;20308;-80
2023/02/16 06:26:13;;;;;;;14.10;6.57;;;;;;;;;;6212548;28;20543;-80
2023/02/16 06:29:18;;;;;;;8.83;5.43;;;;;;;;;;6211000;28;20308;-79
2023/02/16 06:32:23;;;;;;;10.20;5.33;;;;;;;;;;6211322;28;20293;-80
2023/02/16 06:35:28;;;;;;;6.07;5.17;;;;;;;;;;6212230;28;20595;-80
2023/02/16 06:38:33;;;;;;;8.33;5.77;;;;;;;;;;6211137;28;20293;-79
2023/02/16 06:41:40;;;;;;;10.17;6.00;;;;;;;;;;6210197;28;20274;-78
2023/02/16 06:44:45;;;;;;;8.00;4.93;;;;;;;;;;6210878;28;20303;-81
2023/02/16 06:47:50;;;;;;;8.90;5.67;;;;;;;;;;6210606;28;20293;-81
2023/02/16 06:50:56;;;;;;;9.50;5.80;;;;;;;;;;6211733;28;20435;-80
2023/02/16 06:54:02;;;;;;;12.20;6.33;;;;;;;;;;6210496;28;20295;-79
2023/02/16 06:57:12;;;;;;;7.30;5.13;;;;;;;;;;6211298;28;20314;-80
2023/02/16 07:00:18;;;;;;;7.50;5.23;;;;;;;;;;6209700;28;20301;-80
2023/02/16 07:03:23;;;;;;;7.20;4.93;;;;;;;;;;6211112;28;20303;-79
2023/02/16 07:06:29;;;;;;;6.47;5.27;;;;;;;;;;6211754;28;20459;-79
2023/02/16 07:09:37;;;;;;;7.27;5.43;;;;;;;;;;6210656;28;20381;-78
2023/02/16 07:12:43;;;;;;;7.77;5.50;;;;;;;;;;6210071;28;20313;-79
2023/02/16 07:15:48;;;;;;;6.67;4.73;;;;;;;;;;6226210;28;20292;-78
2023/02/16 07:18:54;;;;;;;5.30;4.67;;;;;;;;;;6210381;28;20295;-79
2023/02/16 07:21:59;;;;;;;5.97;5.23;;;;;;;;;;6210700;28;20319;-80
2023/02/16 07:25:04;;;;;;;6.57;5.00;;;;;;;;;;6210710;28;20287;-78
2023/02/16 07:28:13;;;;;;;5.90;5.27;;;;;;;;;;6210445;28;20462;-78
2023/02/16 07:31:18;;;;;;;9.43;5.93;;;;;;;;;;6211228;28;20320;-79
2023/02/16 07:34:24;;;;;;;8.73;5.60;;;;;;;;;;6215760;28;20293;-79
2023/02/16 07:37:29;;;;;;;11.07;5.57;;;;;;;;;;6215393;28;20584;-79
2023/02/16 07:40:34;;;;;;;8.53;5.70;;;;;;;;;;6216534;28;20320;-79
2023/02/16 07:43:41;;;;;;;8.97;5.23;;;;;;;;;;6215427;28;20301;-79
2023/02/16 07:46:47;;;;;;;9.93;6.07;;;;;;;;;;6215798;28;20295;-79
2023/02/16 07:49:52;;;;;;;10.53;5.87;;;;;;;;;;6213561;28;20299;-80
2023/02/16 07:52:57;;;;;;;9.50;6.30;;;;;;;;;;6215522;28;20292;-80
2023/02/16 07:56:02;;;;;;;12.23;6.37;;;;;;;;;;6214499;28;20403;-79
2023/02/16 07:59:08;;;;;;;12.37;6.30;;;;;;;;;;6215076;28;20295;-80
2023/02/16 08:02:17;;;;;;;12.50;5.97;;;;;;;;;;6215087;28;20302;-80
2023/02/16 08:05:22;;;;;;;8.33;6.30;;;;;;;;;;6213075;28;20315;-80
2023/02/16 08:08:28;;;;;;;14.00;6.67;;;;;;;;;;6215303;28;20292;-80
2023/02/16 08:11:33;;;;;;;10.40;5.90;;;;;;;;;;6215084;28;20475;-80
2023/02/16 08:14:40;;;;;;;8.93;6.40;;;;;;;;;;6212482;28;20584;-80
2023/02/16 08:17:46;;;;;;;11.03;6.27;;;;;;;;;;6214273;28;20445;-80
2023/02/16 08:20:51;;;;;;;11.03;5.83;;;;;;;;;;6215386;28;20593;-80
2023/02/16 08:24:12;;;;;;;12.60;6.97;;;;;;;;;;6214715;28;20589;-80
2023/02/16 08:27:17;;;;;;;10.83;6.30;;;;;;;;;;6215183;28;20297;-80
2023/02/16 08:30:23;;;;;;;12.70;6.20;;;;;;;;;;6214657;28;20305;-80
2023/02/16 08:33:29;;;;;;;12.07;6.87;;;;;;;;;;6214545;28;20592;-80
2023/02/16 08:36:38;;;;;;;12.13;6.87;;;;;;;;;;6214732;28;20299;-80
2023/02/16 08:39:44;;;;;;;16.20;7.30;;;;;;;;;;6214002;28;20312;-80
2023/02/16 08:42:49;;;;;;;15.07;7.50;;;;;;;;;;6212479;28;20295;-79
2023/02/16 08:45:58;;;;;;;12.57;7.17;;;;;;;;;;6212549;28;20301;-79
2023/02/16 08:49:07;;;;;;;14.50;7.00;;;;;;;;;;6212686;28;20299;-80
2023/02/16 08:52:13;;;;;;;11.60;7.03;;;;;;;;;;6214422;28;20612;-79
2023/02/16 08:55:18;;;;;;;13.60;7.10;;;;;;;;;;6214265;28;20310;-80
2023/02/16 08:58:24;;;;;;;15.33;7.03;;;;;;;;;;6213000;28;20296;-80
2023/02/16 09:01:31;;;;;;;13.80;7.10;;;;;;;;;;6214558;28;20371;-80
2023/02/16 09:04:36;;;;;;;14.93;7.37;;;;;;;;;;6213330;28;20298;-80
2023/02/16 09:07:41;;;;;;;14.27;7.63;;;;;;;;;;6212853;28;20592;-80
2023/02/16 09:10:47;;;;;;;13.13;7.70;;;;;;;;;;6214056;28;20464;-80
2023/02/16 09:13:52;;;;;;;15.00;8.00;;;;;;;;;;6213261;28;20471;-79
2023/02/16 09:16:59;;;;;;;11.07;6.93;;;;;;;;;;6214000;28;20296;-81
2023/02/16 09:20:05;;;;;;;16.33;7.00;;;;;;;;;;6213095;28;20307;-79
2023/02/16 09:23:12;;;;;;;13.30;6.93;;;;;;;;;;6212754;28;20346;-80
2023/02/16 09:26:18;;;;;;;13.53;7.77;;;;;;;;;;6213878;28;20340;-80
2023/02/16 09:29:24;;;;;;;16.23;8.03;;;;;;;;;;6227947;28;20290;-80
2023/02/16 09:32:31;;;;;;;18.40;8.70;;;;;;;;;;6213283;28;20302;-79
2023/02/16 09:35:38;;;;;;;15.33;7.90;;;;;;;;;;6213214;28;20270;-80
2023/02/16 09:38:43;;;;;;;14.93;8.30;;;;;;;;;;6212713;28;20320;-78
2023/02/16 09:42:07;;;;;;;15.03;8.00;;;;;;;;;;6213517;28;20292;-80
2023/02/16 09:45:15;;;;;;;14.67;8.07;;;;;;;;;;6213187;28;20291;-81
2023/02/16 09:48:31;;;;;;;20.20;8.00;;;;;;;;;;6213095;28;20455;-81
2023/02/16 09:51:39;;;;;;;12.63;7.67;;;;;;;;;;6213365;28;20285;-80
2023/02/16 09:54:49;;;;;;;16.53;8.53;;;;;;;;;;6212374;28;20295;-81
2023/02/16 09:58:03;;;;;;;15.67;8.90;;;;;;;;;;6212606;28;20301;-79
2023/02/16 10:01:19;;;;;;;13.50;8.17;;;;;;;;;;6213101;28;20574;-80
2023/02/16 10:04:30;;;;;;;19.13;8.53;;;;;;;;;;6211306;28;20311;-78
2023/02/16 10:07:42;;;;;;;17.23;8.83;;;;;;;;;;6212136;28;20603;-79
2023/02/16 10:10:50;;;;;;;16.93;9.27;;;;;;;;;;6212757;28;20289;-80
2023/02/16 10:13:58;;;;;;;17.70;9.00;;;;;;;;;;6212575;28;20301;-79
2023/02/16 10:17:17;;;;;;;19.10;9.00;;;;;;;;;;6212755;28;20438;-78
2023/02/16 10:20:27;;;;;;;19.23;9.53;;;;;;;;;;6212587;28;20372;-78
2023/02/16 10:23:44;;;;;;;22.83;10.03;;;;;;;;;;6211703;28;20593;-78
2023/02/16 10:26:54;;;;;;;22.43;10.60;;;;;;;;;;6211582;28;20274;-77
2023/02/16 10:29:59;;;;;;;18.43;9.80;;;;;;;;;;6211796;28;20587;-78
2023/02/16 10:33:13;;;;;;;23.10;9.93;;;;;;;;;;6211948;28;20299;-78
2023/02/16 10:36:28;;;;;;;18.40;10.00;;;;;;;;;;6211696;28;20383;-78
2023/02/16 10:39:38;;;;;;;23.40;10.13;;;;;;;;;;6211526;28;20288;-78
2023/02/16 10:42:48;;;;;;;18.00;9.67;;;;;;;;;;6211722;28;20323;-79
2023/02/16 10:45:55;;;;;;;19.80;10.63;;;;;;;;;;6212343;28;20293;-79
2023/02/16 10:49:01;;;;;;;21.20;10.67;;;;;;;;;;6226783;28;20301;-78
2023/02/16 10:52:08;;;;;;;21.07;10.27;;;;;;;;;;6212335;28;20306;-78
2023/02/16 10:55:15;;;;;;;22.83;11.43;;;;;;;;;;6211618;28;20300;-78
2023/02/16 10:58:22;;;;;;;22.87;11.07;;;;;;;;;;6211857;28;20326;-78
2023/02/16 11:01:35;;;;;;;23.50;11.57;;;;;;;;;;6211840;28;20299;-79
2023/02/16 11:04:42;;;;;;;24.30;11.37;;;;;;;;;;6213748;28;20587;-78
2023/02/16 11:07:55;;;;;;;23.70;10.57;;;;;;;;;;6211658;28;20299;-79
2023/02/16 11:11:09;;;;;;;27.43;11.80;;;;;;;;;;6211558;28;20291;-81
2023/02/16 11:14:22;;;;;;;21.60;10.93;;;;;;;;;;6211436;28;20299;-78
2023/02/16 11:17:27;;;;;;;21.97;10.90;;;;;;;;;;6210912;28;20290;-80
2023/02/16 11:20:36;;;;;;;28.33;12.00;;;;;;;;;;6211952;28;20295;-79
2023/02/16 11:23:58;;;;;;;29.53;11.47;;;;;;;;;;6212549;28;20299;-81
2023/02/16 11:27:06;;;;;;;24.93;11.57;;;;;;;;;;6211412;28;20343;-79
2023/02/16 11:30:21;;;;;;;24.57;11.67;;;;;;;;;;6209830;28;20308;-80
2023/02/16 11:33:28;;;;;;;21.47;11.00;;;;;;;;;;6210886;28;20310;-80
2023/02/16 11:36:38;;;;;;;23.73;11.13;;;;;;;;;;6212150;28;20295;-79
2023/02/16 11:40:23;;;;;;;24.40;11.90;;;;;;;;;;6213675;28;20296;-77
2023/02/16 11:43:32;;;;;;;21.57;11.77;;;;;;;;;;6209646;28;20300;-80
2023/02/16 11:46:40;;;;;;;25.93;11.70;;;;;;;;;;6210764;28;20620;-80
2023/02/16 11:49:45;;;;;;;28.73;12.33;;;;;;;;;;6210143;28;20304;-79
2023/02/16 11:52:52;;;;;;;27.37;12.17;;;;;;;;;;6210026;28;20295;-81
2023/02/16 11:56:18;;;;;;;23.70;12.37;;;;;;;;;;6209798;28;20418;-80
2023/02/16 11:59:23;;;;;;;25.83;12.23;;;;;;;;;;6225652;28;20485;-81
2023/02/16 12:03:00;;;;;;;27.63;12.37;;;;;;;;;;6208698;28;20595;-80
2023/02/16 12:06:12;;;;;;;24.87;12.10;;;;;;;;;;6209727;28;20493;-79
2023/02/16 12:09:25;;;;;;;25.10;12.17;;;;;;;;;;6209882;28;20292;-80
2023/02/16 12:12:40;;;;;;;24.97;12.87;;;;;;;;;;6207348;28;20295;-80
2023/02/16 12:15:48;;;;;;;31.43;12.93;;;;;;;;;;6210698;28;20611;-79
2023/02/16 12:19:04;;;;;;;28.90;12.07;;;;;;;;;;6212715;28;20301;-79
2023/02/16 12:22:23;;;;;;;21.40;12.50;;;;;;;;;;6215433;28;20299;-80
2023/02/16 12:25:34;;;;;;;24.80;12.40;;;;;;;;;;6213126;28;20300;-79
2023/02/16 12:28:44;;;;;;;26.83;12.13;;;;;;;;;;6214695;28;20299;-79
2023/02/16 12:32:10;;;;;;;25.97;13.30;;;;;;;;;;6215191;28;20291;-79
2023/02/16 12:35:34;;;;;;;28.70;13.30;;;;;;;;;;6214808;28;20300;-79
2023/02/16 12:38:47;;;;;;;23.70;12.00;;;;;;;;;;6213336;28;20300;-79
2023/02/16 12:42:13;;;;;;;25.43;12.30;;;;;;;;;;6229772;28;20268;-79
2023/02/16 12:45:22;;;;;;;26.27;12.17;;;;;;;;;;6213737;28;20593;-79
2023/02/16 12:48:37;;;;;;;23.27;13.20;;;;;;;;;;6214211;28;20300;-79
2023/02/16 12:51:46;;;;;;;27.23;13.00;;;;;;;;;;6214807;28;20427;-79
2023/02/16 12:54:54;;;;;;;27.23;12.93;;;;;;;;;;6214606;28;20320;-80
2023/02/16 12:58:08;;;;;;;29.57;13.60;;;;;;;;;;6213854;28;20293;-80
2023/02/16 13:01:18;;;;;;;26.93;12.80;;;;;;;;;;6214364;28;20297;-80
2023/02/16 13:04:30;;;;;;;23.67;12.63;;;;;;;;;;6213122;28;20312;-79
2023/02/16 13:07:40;;;;;;;24.83;11.87;;;;;;;;;;6211956;28;20296;-80
2023/02/16 13:10:54;;;;;;;23.87;12.07;;;;;;;;;;6229677;28;20292;-79
2023/02/16 13:14:04;;;;;;;28.57;12.47;;;;;;;;;;6219480;28;20300;-80
2023/02/16 13:17:14;;;;;;;26.43;13.23;;;;;;;;;;6221470;28;20312;-79
2023/02/16 13:20:21;;;;;;;27.00;12.67;;;;;;;;;;6221370;28;20270;-79
2023/02/16 13:23:36;;;;;;;30.43;13.90;;;;;;;;;;6222137;28;20293;-80
2023/02/16 13:26:49;;;;;;;26.07;12.33;;;;;;;;;;6218585;28;20280;-79
2023/02/16 13:30:40;;;;;;;28.47;13.37;;;;;;;;;;6213162;28;20311;-79
2023/02/16 13:34:02;;;;;;;29.60;12.80;;;;;;;;;;6213818;28;20308;-80
2023/02/16 13:37:22;;;;;;;24.63;12.80;;;;;;;;;;6214418;28;20292;-79
2023/02/16 13:40:48;;;;;;;25.87;13.07;;;;;;;;;;6212679;28;20316;-79
2023/02/16 13:43:54;;;;;;;27.37;13.37;;;;;;;;;;6212489;28;20331;-79
2023/02/16 13:47:01;;;;;;;25.00;13.00;;;;;;;;;;6213274;28;20299;-79
2023/02/16 13:50:26;;;;;;;31.20;13.20;;;;;;;;;;6211828;28;20608;-79
2023/02/16 13:53:36;;;;;;;27.93;12.93;;;;;;;;;;6213093;28;20617;-79
2023/02/16 13:56:41;;;;;;;26.00;13.10;;;;;;;;;;6211851;28;20271;-79
2023/02/16 13:59:54;;;;;;;27.53;12.80;;;;;;;;;;6226490;28;20252;-79
2023/02/16 14:03:04;;;;;;;32.13;14.00;;;;;;;;;;6212186;28;20560;-79
2023/02/16 14:06:32;;;;;;;29.13;14.00;;;;;;;;;;6213000;28;20287;-79
2023/02/16 14:09:48;;;;;;;28.73;12.50;;;;;;;;;;6212499;28;20484;-79
2023/02/16 14:12:53;;;;;;;24.83;12.70;;;;;;;;;;6211861;28;20463;-80
2023/02/16 14:16:01;;;;;;;22.77;12.93;;;;;;;;;;6212741;28;20579;-79
2023/02/16 14:19:19;;;;;;;28.03;13.00;;;;;;;;;;6212337;28;20304;-79
2023/02/16 14:22:34;;;;;;;27.50;13.27;;;;;;;;;;6210648;28;20300;-79
2023/02/16 14:25:40;;;;;;;30.87;13.80;;;;;;;;;;6210958;28;20617;-78
2023/02/16 14:29:08;;;;;;;30.53;13.70;;;;;;;;;;6211646;28;20387;-79
2023/02/16 14:32:22;;;;;;;28.10;13.50;;;;;;;;;;6211568;28;20476;-79
2023/02/16 14:35:30;;;;;;;25.97;12.70;;;;;;;;;;6211937;28;20300;-79
2023/02/16 14:38:37;;;;;;;28.03;13.77;;;;;;;;;;6210540;28;20300;-79
2023/02/16 14:41:43;;;;;;;30.13;14.00;;;;;;;;;;6211141;28;20288;-79
2023/02/16 14:45:02;;;;;;;28.73;13.63;;;;;;;;;;6210524;28;20493;-79
2023/02/16 14:48:18;;;;;;;30.00;14.00;;;;;;;;;;6210336;28;20291;-78
2023/02/16 14:51:44;;;;;;;27.00;13.53;;;;;;;;;;6213136;28;20406;-78
2023/02/16 14:55:25;;;;;;;32.33;13.87;;;;;;;;;;6211823;28;20306;-78
2023/02/16 14:58:34;;;;;;;27.73;14.13;;;;;;;;;;6212071;28;20300;-80
2023/02/16 15:01:42;;;;;;;31.30;14.20;;;;;;;;;;6212348;28;20602;-79
2023/02/16 15:04:47;;;;;;;29.37;13.63;;;;;;;;;;6209634;28;20318;-78
2023/02/16 15:07:58;;;;;;;30.43;14.63;;;;;;;;;;6209600;28;20296;-79
2023/02/16 15:11:15;;;;;;;36.80;14.50;;;;;;;;;;6210748;28;20346;-79
2023/02/16 15:14:24;;;;;;;31.83;14.53;;;;;;;;;;6211358;28;20307;-79
2023/02/16 15:17:33;;;;;;;36.63;14.77;;;;;;;;;;6209867;28;20311;-79
2023/02/16 15:20:39;;;;;;;35.10;14.47;;;;;;;;;;6210561;28;20279;-78
2023/02/16 15:23:52;;;;;;;31.90;13.80;;;;;;;;;;6210644;28;20303;-78
2023/02/16 15:27:00;;;;;;;27.23;12.83;;;;;;;;;;6211339;28;20295;-79
2023/02/16 15:30:22;;;;;;;38.97;14.63;;;;;;;;;;6211059;28;20300;-79
2023/02/16 15:33:35;;;;;;;34.20;14.63;;;;;;;;;;6214006;28;20291;-79
2023/02/16 15:36:43;;;;;;;36.10;14.07;;;;;;;;;;6215782;28;20476;-79
2023/02/16 15:39:48;;;;;;;32.07;14.90;;;;;;;;;;6211642;28;20312;-80
2023/02/16 15:43:29;;;;;;;36.83;14.80;;;;;;;;;;6211155;28;20304;-79
2023/02/16 15:46:36;;;;;;;33.87;14.23;;;;;;;;;;6211372;28;20303;-79
2023/02/16 15:49:42;;;;;;;30.70;13.87;;;;;;;;;;6209888;28;20299;-79
2023/02/16 15:52:47;;;;;;;34.77;14.43;;;;;;;;;;6211780;28;20302;-78
2023/02/16 15:55:52;;;;;;;33.60;14.70;;;;;;;;;;6216296;28;20403;-79
2023/02/16 15:59:00;;;;;;;31.17;14.80;;;;;;;;;;6215173;28;20311;-78
2023/02/16 16:02:13;;;;;;;34.67;15.87;;;;;;;;;;6230666;28;20303;-80
2023/02/16 16:05:24;;;;;;;37.83;15.03;;;;;;;;;;6215212;28;20630;-79
2023/02/16 16:08:29;;;;;;;32.40;14.97;;;;;;;;;;6205703;28;20575;-78
2023/02/16 16:11:36;;;;;;;38.00;16.13;;;;;;;;;;6215379;28;20481;-79
2023/02/16 16:14:49;;;;;;;39.07;15.73;;;;;;;;;;6215367;28;20312;-79
2023/02/16 16:17:58;;;;;;;38.13;15.47;;;;;;;;;;6215629;28;20287;-79
2023/02/16 16:21:11;;;;;;;42.23;15.37;;;;;;;;;;6215699;28;20295;-79
2023/02/16 16:24:33;;;;;;;35.57;14.90;;;;;;;;;;6213984;28;20295;-79
2023/02/16 16:27:38;;;;;;;36.03;16.07;;;;;;;;;;6230129;28;20298;-78
2023/02/16 16:30:45;;;;;;;31.60;14.90;;;;;;;;;;6213766;28;20497;-80
2023/02/16 16:33:55;;;;;;;37.83;15.30;;;;;;;;;;6215308;28;20540;-78
2023/02/16 16:37:02;;;;;;;30.93;15.00;;;;;;;;;;6215339;28;20614;-81
2023/02/16 16:40:20;;;;;;;33.03;15.50;;;;;;;;;;6214720;28;20300;-79
2023/02/16 16:43:28;;;;;;;38.00;15.70;;;;;;;;;;6214499;28;20299;-79
2023/02/16 16:46:35;;;;;;;37.43;15.50;;;;;;;;;;6214991;28;20311;-79
2023/02/16 16:49:49;;;;;;;37.30;15.67;;;;;;;;;;6215017;28;20308;-79
2023/02/16 16:52:55;;;;;;;36.77;15.27;;;;;;;;;;6214989;28;20594;-80
2023/02/16 16:56:07;;;;;;;41.43;15.83;;;;;;;;;;6215559;28;20299;-80
2023/02/16 16:59:13;;;;;;;36.27;15.10;;;;;;;;;;6213625;28;20367;-79
2023/02/16 17:02:21;;;;;;;33.57;15.63;;;;;;;;;;6212869;28;20509;-79
2023/02/16 17:05:26;;;;;;;39.33;17.47;;;;;;;;;;6214083;28;20458;-79
2023/02/16 17:08:31;;;;;;;32.27;14.87;;;;;;;;;;6212957;28;20483;-77
2023/02/16 17:11:37;;;;;;;34.33;15.07;;;;;;;;;;6212157;28;20312;-78
2023/02/16 17:14:43;;;;;;;34.80;15.53;;;;;;;;;;6213674;28;20304;-79
2023/02/16 17:17:49;;;;;;;36.87;15.93;;;;;;;;;;6213364;28;20308;-79
2023/02/16 17:20:56;;;;;;;39.23;15.20;;;;;;;;;;6214408;28;20290;-78
2023/02/16 17:24:02;;;;;;;36.03;15.63;;;;;;;;;;6214051;28;20296;-79
2023/02/16 17:27:07;;;;;;;37.33;16.00;;;;;;;;;;6214080;28;20303;-79
2023/02/16 17:30:14;;;;;;;37.67;15.77;;;;;;;;;;6213929;28;20305;-79
2023/02/16 17:33:20;;;;;;;35.27;15.37;;;;;;;;;;6214310;28;20296;-80
2023/02/16 17:36:36;;;;;;;38.83;16.53;;;;;;;;;;6212589;28;20484;-77
2023/02/16 17:39:44;;;;;;;40.90;15.97;;;;;;;;;;6213447;28;20603;-81
2023/02/16 17:42:53;;;;;;;37.73;15.73;;;;;;;;;;6228177;28;20608;-80
2023/02/16 17:46:03;;;;;;;37.67;16.07;;;;;;;;;;6213635;28;20557;-81
2023/02/16 17:49:12;;;;;;;40.73;16.50;;;;;;;;;;6212587;28;20308;-80
2023/02/16 17:52:17;;;;;;;37.10;16.13;;;;;;;;;;6213702;28;20312;-77
2023/02/16 17:55:22;;;;;;;38.43;16.03;;;;;;;;;;6213290;28;20312;-77
2023/02/16 17:58:27;;;;;;;36.17;14.80;;;;;;;;;;6213761;28;20291;-86
2023/02/16 18:01:33;;;;;;;36.57;15.33;;;;;;;;;;6215152;28;20584;-79
2023/02/16 18:04:40;;;;;;;35.93;15.83;;;;;;;;;;6212876;28;20300;-79
2023/02/16 18:07:46;;;;;;;35.80;16.13;;;;;;;;;;6227441;28;20299;-78
2023/02/16 18:10:53;;;;;;;37.50;14.87;;;;;;;;;;6214080;28;20485;-81
2023/02/16 18:13:58;;;;;;;37.17;16.00;;;;;;;;;;6213066;28;20300;-79
2023/02/16 18:17:05;;;;;;;40.07;15.53;;;;;;;;;;6212343;28;20292;-78
2023/02/16 18:20:15;;;;;;;41.57;16.07;;;;;;;;;;6212122;28;20344;-79
2023/02/16 18:23:22;;;;;;;38.37;15.87;;;;;;;;;;6210934;28;20292;-78
2023/02/16 18:26:32;;;;;;;34.37;16.07;;;;;;;;;;6211482;28;20602;-78
2023/02/16 18:29:37;;;;;;;32.23;15.20;;;;;;;;;;6209316;28;20295;-78
2023/02/16 18:32:43;;;;;;;38.07;15.60;;;;;;;;;;6212426;28;20295;-79
2023/02/16 18:35:52;;;;;;;37.43;16.13;;;;;;;;;;6194517;28;20306;-79
2023/02/16 18:38:58;;;;;;;36.67;15.73;;;;;;;;;;6226667;28;20296;-80
2023/02/16 18:42:17;;;;;;;35.27;15.63;;;;;;;;;;6210919;28;20281;-79
2023/02/16 18:45:23;;;;;;;43.37;15.90;;;;;;;;;;6212958;28;20300;-78
2023/02/16 18:48:28;;;;;;;37.77;17.07;;;;;;;;;;6212721;28;20304;-78
2023/02/16 18:51:36;;;;;;;42.80;17.17;;;;;;;;;;6211218;28;20299;-78
2023/02/16 18:54:42;;;;;;;42.10;17.37;;;;;;;;;;6209860;28;20291;-79
2023/02/16 18:57:47;;;;;;;43.03;19.07;;;;;;;;;;6212580;28;20313;-79
2023/02/16 19:00:52;;;;;;;42.13;17.03;;;;;;;;;;6211250;28;20291;-79
2023/02/16 19:03:58;;;;;;;37.90;16.10;;;;;;;;;;6210224;28;20587;-80
2023/02/16 19:07:05;;;;;;;35.30;15.43;;;;;;;;;;6225569;28;20298;-79
2023/02/16 19:10:12;;;;;;;31.73;15.03;;;;;;;;;;6211391;28;20299;-82
2023/02/16 19:13:17;;;;;;;34.17;15.37;;;;;;;;;;6226791;28;20298;-84
2023/02/16 19:16:22;;;;;;;34.23;15.43;;;;;;;;;;6211465;28;20317;-81
2023/02/16 19:19:27;;;;;;;39.47;15.80;;;;;;;;;;6211101;28;20307;-80
2023/02/16 19:22:36;;;;;;;34.70;14.80;;;;;;;;;;6211650;28;20545;-83